Time;durP1;ratioP1;P1;durP2;ratioP2;P2;SDS_P1;SDS_P2;PMS_P1;PMS_P2;Temp;Humidity;BMP_temperature;BMP_pressure;BME280_temperature;BME280_humidity;BME280_pressure;Samples;Min_cycle;Max_cycle;Signal;HPM_P1;HPM_P2
2024/01/02 00:01:35;;;;;;;5.83;0.90;;;9.10;99.90;;;;;;7305529;19;20189;-80
2024/01/02 00:04:02;;;;;;;8.57;1.50;;;9.10;99.90;;;;;;7282648;19;20264;-79
2024/01/02 00:06:28;;;;;;;5.77;0.90;;;9.20;99.90;;;;;;7281402;19;20219;-80
2024/01/02 00:08:53;;;;;;;7.23;1.10;;;9.20;99.90;;;;;;7280707;19;20193;-79
2024/01/02 00:11:20;;;;;;;5.43;1.00;;;9.00;99.90;;;;;;7283920;19;20221;-79
2024/01/02 00:13:46;;;;;;;5.50;1.00;;;8.90;99.90;;;;;;7282036;19;20305;-80
2024/01/02 00:16:11;;;;;;;3.67;0.77;;;8.90;99.90;;;;;;7280628;19;20223;-79
2024/01/02 00:18:37;;;;;;;2.70;0.90;;;8.90;99.90;;;;;;7305152;19;20623;-80
2024/01/02 00:21:03;;;;;;;4.43;0.73;;;8.90;99.90;;;;;;7288072;19;20199;-79
2024/01/02 00:23:29;;;;;;;2.90;0.90;;;8.90;99.90;;;;;;7288727;19;20173;-80
2024/01/02 00:25:56;;;;;;;3.43;0.77;;;9.00;99.90;;;;;;7289211;19;20607;-80
2024/01/02 00:28:22;;;;;;;2.07;0.70;;;9.10;99.90;;;;;;7287299;19;20196;-77
2024/01/02 00:30:48;;;;;;;3.23;0.67;;;9.20;99.90;;;;;;7287182;19;20196;-80
2024/01/02 00:33:14;;;;;;;3.23;0.60;;;9.20;99.90;;;;;;7286730;19;20193;-80
2024/01/02 00:35:40;;;;;;;3.67;0.80;;;9.20;99.90;;;;;;7288183;19;20185;-80
2024/01/02 00:38:08;;;;;;;3.40;0.90;;;9.40;99.90;;;;;;7309751;19;20738;-78
2024/01/02 00:40:34;;;;;;;3.93;0.70;;;9.40;99.90;;;;;;7287217;19;20185;-77
2024/01/02 00:43:00;;;;;;;2.83;0.70;;;9.50;99.90;;;;;;7287605;19;20194;-78
2024/01/02 00:45:26;;;;;;;3.73;0.80;;;9.60;99.90;;;;;;7285780;19;20189;-80
2024/01/02 00:47:51;;;;;;;2.93;0.83;;;9.60;99.90;;;;;;7289355;19;20231;-79
2024/01/02 00:50:19;;;;;;;2.93;0.70;;;9.50;99.90;;;;;;7287208;19;20191;-80
2024/01/02 00:52:45;;;;;;;5.00;0.80;;;9.40;99.90;;;;;;7287430;19;20207;-80
2024/01/02 00:55:11;;;;;;;2.70;0.70;;;9.40;99.90;;;;;;7286453;19;20186;-77
2024/01/02 00:57:37;;;;;;;0.93;0.50;;;9.50;99.90;;;;;;7310206;19;20281;-79
2024/01/02 01:00:04;;;;;;;1.13;0.53;;;9.50;99.90;;;;;;7288482;19;20190;-79
2024/01/02 01:02:30;;;;;;;2.10;0.60;;;9.50;99.90;;;;;;7287738;19;20183;-79
2024/01/02 01:04:56;;;;;;;3.10;0.63;;;9.50;99.90;;;;;;7287912;19;20616;-79
2024/01/02 01:07:23;;;;;;;2.73;0.60;;;9.40;99.90;;;;;;7287392;19;20186;-79
2024/01/02 01:09:49;;;;;;;3.23;0.70;;;9.40;99.90;;;;;;7287682;19;20244;-80
2024/01/02 01:12:15;;;;;;;1.10;0.50;;;9.40;99.90;;;;;;7287974;19;20675;-79
2024/01/02 01:14:40;;;;;;;1.37;0.57;;;9.40;99.90;;;;;;7286326;19;20177;-79
2024/01/02 01:17:07;;;;;;;1.90;0.60;;;9.40;99.90;;;;;;7308933;19;20198;-79
2024/01/02 01:19:36;;;;;;;0.93;0.43;;;9.50;99.90;;;;;;7287307;19;20197;-79
2024/01/02 01:22:02;;;;;;;0.70;0.40;;;9.50;99.90;;;;;;7288433;19;20186;-79
2024/01/02 01:24:28;;;;;;;1.80;0.40;;;9.60;99.90;;;;;;7287224;19;20739;-79
2024/01/02 01:26:54;;;;;;;1.40;0.47;;;9.60;99.90;;;;;;7287224;19;20197;-79
2024/01/02 01:29:20;;;;;;;2.30;0.40;;;9.60;99.90;;;;;;7284029;19;20525;-79
2024/01/02 01:31:46;;;;;;;4.17;0.50;;;9.60;99.90;;;;;;7286010;19;20604;-79
2024/01/02 01:34:12;;;;;;;1.83;0.60;;;9.70;99.90;;;;;;7287167;19;20196;-78
2024/01/02 01:36:38;;;;;;;1.43;0.40;;;9.70;99.90;;;;;;7299827;19;20272;-79
2024/01/02 01:39:04;;;;;;;1.77;0.50;;;9.70;99.90;;;;;;7302549;19;20203;-79
2024/01/02 01:41:31;;;;;;;1.77;0.40;;;9.70;99.90;;;;;;7285570;19;20193;-79
2024/01/02 01:43:57;;;;;;;1.87;0.50;;;9.70;99.90;;;;;;7287160;19;20185;-79
2024/01/02 01:46:26;;;;;;;1.70;0.40;;;9.70;99.90;;;;;;7286547;19;20193;-79
2024/01/02 01:48:53;;;;;;;0.60;0.40;;;9.80;99.90;;;;;;7286467;19;20193;-80
2024/01/02 01:51:22;;;;;;;1.73;0.50;;;9.70;99.90;;;;;;7285623;19;20186;-79
2024/01/02 01:53:50;;;;;;;3.97;0.50;;;9.70;99.90;;;;;;7286055;19;20194;-79
2024/01/02 01:56:16;;;;;;;1.87;0.40;;;9.80;99.90;;;;;;7285321;19;20204;-79
2024/01/02 01:58:44;;;;;;;1.33;0.30;;;9.90;99.90;;;;;;7285398;19;20270;-79
2024/01/02 02:01:10;;;;;;;2.83;0.53;;;9.90;99.90;;;;;;7285781;19;20222;-79
2024/01/02 02:03:36;;;;;;;1.13;0.40;;;9.90;99.90;;;;;;7307806;19;20598;-79
2024/01/02 02:06:02;;;;;;;0.63;0.30;;;10.00;99.90;;;;;;7285035;19;20210;-79
2024/01/02 02:08:27;;;;;;;2.33;0.60;;;10.00;99.90;;;;;;7286034;19;20193;-79
2024/01/02 02:10:53;;;;;;;0.93;0.30;;;10.10;99.90;;;;;;7283580;19;20840;-79
2024/01/02 02:13:20;;;;;;;2.43;0.40;;;10.10;99.90;;;;;;7286081;19;20203;-79
2024/01/02 02:15:48;;;;;;;0.87;0.40;;;10.10;99.90;;;;;;7287248;19;20187;-79
2024/01/02 02:18:15;;;;;;;1.37;0.50;;;10.20;99.90;;;;;;7284992;19;20207;-79
2024/01/02 02:20:40;;;;;;;1.00;0.40;;;10.20;99.90;;;;;;7286495;19;20642;-79
2024/01/02 02:23:06;;;;;;;1.47;0.30;;;10.20;99.90;;;;;;7307499;19;20187;-79
2024/01/02 02:25:32;;;;;;;1.20;0.33;;;10.20;99.90;;;;;;7285431;19;20251;-79
2024/01/02 02:27:58;;;;;;;1.17;0.30;;;10.20;99.90;;;;;;7283791;19;20207;-79
2024/01/02 02:30:24;;;;;;;0.50;0.40;;;10.30;99.90;;;;;;7284984;19;20198;-79
2024/01/02 02:32:50;;;;;;;1.90;0.40;;;10.40;99.90;;;;;;7286736;19;20650;-79
2024/01/02 02:35:15;;;;;;;1.17;0.30;;;10.40;99.90;;;;;;7285419;19;20290;-79
2024/01/02 02:37:41;;;;;;;1.47;0.40;;;10.40;99.90;;;;;;7283222;19;20570;-79
2024/01/02 02:40:08;;;;;;;0.97;0.23;;;10.40;99.90;;;;;;7306783;19;20190;-79
2024/01/02 02:42:33;;;;;;;0.40;0.33;;;10.40;99.90;;;;;;7285159;19;20184;-79
2024/01/02 02:45:00;;;;;;;1.27;0.40;;;10.40;99.90;;;;;;7285236;19;20300;-79
2024/01/02 02:47:26;;;;;;;2.33;0.30;;;10.50;99.90;;;;;;7286036;19;20527;-79
2024/01/02 02:49:52;;;;;;;1.80;0.30;;;10.60;99.90;;;;;;7285110;19;20284;-79
2024/01/02 02:52:19;;;;;;;0.93;0.40;;;10.50;99.90;;;;;;7284059;19;20648;-79
2024/01/02 02:54:45;;;;;;;2.57;0.40;;;10.50;99.90;;;;;;7283340;19;20186;-79
2024/01/02 02:57:11;;;;;;;0.40;0.33;;;10.60;99.90;;;;;;7282924;19;21012;-80
2024/01/02 02:59:37;;;;;;;0.70;0.50;;;10.70;99.90;;;;;;7306577;19;20183;-79
2024/01/02 03:02:03;;;;;;;2.70;0.73;;;10.70;99.90;;;;;;7283827;19;20646;-79
2024/01/02 03:04:28;;;;;;;2.57;0.70;;;10.70;99.90;;;;;;7284338;19;20207;-79
2024/01/02 03:06:55;;;;;;;1.80;0.50;;;10.80;99.90;;;;;;7285222;19;20195;-79
2024/01/02 03:09:21;;;;;;;3.70;0.63;;;10.90;99.90;;;;;;7284015;19;20191;-79
2024/01/02 03:11:48;;;;;;;2.17;0.77;;;10.90;99.90;;;;;;7284504;19;20200;-79
2024/01/02 03:14:14;;;;;;;6.13;1.00;;;11.00;99.90;;;;;;7284219;19;20191;-80
2024/01/02 03:16:41;;;;;;;2.20;0.80;;;11.00;99.90;;;;;;7284457;19;20194;-80
2024/01/02 03:19:07;;;;;;;4.73;0.90;;;11.00;99.90;;;;;;7305686;19;20297;-80
2024/01/02 03:21:33;;;;;;;5.67;1.60;;;11.00;99.90;;;;;;7284197;19;20194;-79
2024/01/02 03:23:58;;;;;;;4.33;1.23;;;11.00;99.90;;;;;;7283344;19;20239;-79
2024/01/02 03:26:25;;;;;;;5.67;1.70;;;11.10;99.90;;;;;;7285415;19;20202;-79
2024/01/02 03:28:50;;;;;;;7.33;1.83;;;11.10;99.90;;;;;;7288695;19;20222;-79
2024/01/02 03:31:16;;;;;;;6.43;1.50;;;11.10;99.90;;;;;;7292075;19;20686;-79
2024/01/02 03:33:42;;;;;;;8.67;1.63;;;11.10;99.90;;;;;;7286514;19;20217;-79
2024/01/02 03:36:18;;;;;;;6.13;1.87;;;11.20;99.90;;;;;;7301927;19;20200;-79
2024/01/02 03:38:48;;;;;;;6.40;1.40;;;11.20;99.90;;;;;;7283292;19;20198;-79
2024/01/02 03:41:14;;;;;;;3.87;0.90;;;11.20;99.90;;;;;;7283121;19;20187;-79
2024/01/02 03:43:40;;;;;;;2.10;0.70;;;11.20;99.90;;;;;;7282468;19;20562;-79
2024/01/02 03:46:06;;;;;;;2.00;0.40;;;11.30;99.90;;;;;;7304263;19;20648;-78
2024/01/02 03:48:33;;;;;;;1.40;0.30;;;11.30;99.90;;;;;;7283148;19;20655;-79
2024/01/02 03:51:01;;;;;;;0.83;0.40;;;11.40;99.90;;;;;;7282854;19;20213;-79
2024/01/02 03:53:28;;;;;;;0.97;0.27;;;11.40;99.90;;;;;;7284448;19;20282;-79
2024/01/02 03:55:55;;;;;;;1.00;0.40;;;11.50;99.90;;;;;;7289590;19;20196;-79
2024/01/02 03:58:22;;;;;;;1.90;0.37;;;11.50;99.90;;;;;;7289547;19;20202;-79
2024/01/02 04:00:49;;;;;;;0.60;0.30;;;11.50;99.90;;;;;;7289227;19;20185;-78
2024/01/02 04:03:15;;;;;;;0.40;0.30;;;11.60;99.90;;;;;;7288982;19;20184;-79
2024/01/02 04:05:41;;;;;;;0.70;0.20;;;11.50;99.90;;;;;;7289481;19;20207;-79
2024/01/02 04:08:06;;;;;;;0.90;0.30;;;11.60;99.90;;;;;;7311587;19;20616;-78
2024/01/02 04:10:32;;;;;;;0.50;0.27;;;11.60;99.90;;;;;;7289747;19;20232;-79
2024/01/02 04:12:58;;;;;;;0.77;0.30;;;11.60;99.90;;;;;;7289213;19;20606;-79
2024/01/02 04:15:24;;;;;;;0.27;0.27;;;11.60;99.90;;;;;;7289144;19;20197;-79
2024/01/02 04:17:49;;;;;;;1.30;0.30;;;11.70;99.90;;;;;;7289320;19;20197;-79
2024/01/02 04:20:15;;;;;;;2.20;0.30;;;11.70;99.90;;;;;;7289162;19;20212;-79
2024/01/02 04:22:41;;;;;;;1.00;0.23;;;11.70;99.90;;;;;;7289265;19;20195;-79
2024/01/02 04:25:07;;;;;;;0.67;0.20;;;11.80;99.90;;;;;;7310052;19;20553;-79
2024/01/02 04:27:33;;;;;;;0.60;0.30;;;11.80;99.90;;;;;;7288999;19;20652;-79
2024/01/02 04:29:59;;;;;;;0.40;0.23;;;11.70;99.90;;;;;;7289112;19;20249;-79
2024/01/02 04:32:25;;;;;;;1.63;0.30;;;11.80;99.90;;;;;;7289012;19;20527;-79
2024/01/02 04:34:50;;;;;;;0.77;0.17;;;11.80;99.90;;;;;;7288300;19;20652;-79
2024/01/02 04:37:16;;;;;;;0.53;0.20;;;11.80;99.90;;;;;;7288280;19;20674;-79
2024/01/02 04:39:42;;;;;;;0.83;0.20;;;11.70;99.90;;;;;;7287182;19;20195;-79
2024/01/02 04:42:08;;;;;;;0.20;0.20;;;11.70;99.90;;;;;;7309855;19;20267;-79
2024/01/02 04:44:33;;;;;;;0.30;0.20;;;11.70;99.90;;;;;;7288331;19;20184;-79
2024/01/02 04:46:59;;;;;;;0.20;0.10;;;11.80;99.90;;;;;;7289573;19;20192;-79
2024/01/02 04:49:26;;;;;;;0.30;0.20;;;11.80;99.90;;;;;;7285431;19;20197;-79
2024/01/02 04:51:51;;;;;;;1.03;0.20;;;11.80;99.90;;;;;;7285814;19;20271;-79
2024/01/02 04:54:17;;;;;;;0.40;0.20;;;11.80;99.90;;;;;;7288420;19;20201;-79
2024/01/02 04:56:43;;;;;;;1.17;0.33;;;11.80;99.90;;;;;;7287451;19;20193;-79
2024/01/02 04:59:09;;;;;;;0.53;0.20;;;11.80;99.90;;;;;;7299388;19;20192;-80
2024/01/02 05:01:37;;;;;;;1.33;0.30;;;11.90;99.90;;;;;;7305908;19;20185;-79
2024/01/02 05:04:04;;;;;;;0.77;0.20;;;11.90;99.90;;;;;;7286937;19;20195;-79
2024/01/02 05:06:30;;;;;;;2.13;0.40;;;11.90;99.90;;;;;;7284840;19;20514;-77
2024/01/02 05:08:56;;;;;;;0.60;0.30;;;11.90;99.90;;;;;;7288165;19;20192;-78
2024/01/02 05:11:22;;;;;;;1.20;0.50;;;12.00;99.90;;;;;;7286660;19;20207;-78
2024/01/02 05:13:48;;;;;;;0.47;0.20;;;12.00;99.90;;;;;;7286135;19;20207;-78
2024/01/02 05:16:14;;;;;;;0.23;0.23;;;12.00;99.90;;;;;;7286538;19;20648;-78
2024/01/02 05:18:40;;;;;;;0.63;0.30;;;12.10;99.90;;;;;;7286978;19;20192;-78
2024/01/02 05:21:07;;;;;;;1.60;0.20;;;12.00;99.90;;;;;;7308866;19;20209;-79
2024/01/02 05:23:33;;;;;;;0.70;0.30;;;12.10;99.90;;;;;;7287057;19;20191;-78
2024/01/02 05:25:59;;;;;;;0.57;0.20;;;12.10;99.90;;;;;;7287377;19;20210;-79
2024/01/02 05:28:26;;;;;;;0.53;0.27;;;12.10;99.90;;;;;;7285847;19;20972;-78
2024/01/02 05:30:52;;;;;;;1.37;0.40;;;12.10;99.90;;;;;;7286028;19;20208;-79
2024/01/02 05:33:18;;;;;;;2.00;0.30;;;12.10;99.90;;;;;;7285662;19;20200;-79
2024/01/02 05:35:44;;;;;;;0.50;0.30;;;12.10;99.90;;;;;;7285231;19;20200;-79
2024/01/02 05:38:09;;;;;;;0.60;0.30;;;12.20;99.90;;;;;;7293803;19;20187;-79
2024/01/02 05:40:35;;;;;;;2.50;0.40;;;12.20;99.90;;;;;;7305765;19;20193;-80
2024/01/02 05:43:01;;;;;;;1.40;0.40;;;12.20;99.90;;;;;;7285661;19;20200;-79
2024/01/02 05:45:26;;;;;;;0.40;0.20;;;12.10;99.90;;;;;;7285702;19;20196;-79
2024/01/02 05:47:52;;;;;;;0.40;0.33;;;12.30;99.90;;;;;;7283090;19;20193;-78
2024/01/02 05:50:18;;;;;;;0.20;0.20;;;12.20;99.90;;;;;;7284928;19;20188;-79
2024/01/02 05:52:44;;;;;;;0.27;0.27;;;12.30;99.90;;;;;;7282907;19;20202;-78
2024/01/02 05:55:10;;;;;;;2.07;0.30;;;12.30;99.90;;;;;;7296432;19;20193;-78
2024/01/02 05:57:35;;;;;;;0.40;0.20;;;12.30;99.90;;;;;;7305835;19;20182;-78
2024/01/02 06:00:01;;;;;;;3.07;0.50;;;12.30;99.90;;;;;;7284971;19;20660;-78
2024/01/02 06:02:27;;;;;;;1.27;0.27;;;12.40;99.90;;;;;;7285870;19;20201;-78
2024/01/02 06:04:53;;;;;;;0.30;0.30;;;12.30;99.90;;;;;;7286516;19;20199;-78
2024/01/02 06:07:19;;;;;;;0.70;0.23;;;12.30;99.90;;;;;;7286278;19;20571;-78
2024/01/02 06:09:44;;;;;;;0.60;0.27;;;12.30;99.90;;;;;;7286300;19;20192;-78
2024/01/02 06:12:10;;;;;;;0.73;0.30;;;12.30;99.90;;;;;;7287420;19;20268;-78
2024/01/02 06:14:37;;;;;;;2.13;0.40;;;12.20;99.90;;;;;;7309179;19;20674;-78
2024/01/02 06:17:03;;;;;;;1.77;0.33;;;12.30;99.90;;;;;;7282971;19;20225;-78
2024/01/02 06:19:29;;;;;;;1.63;0.40;;;12.30;99.90;;;;;;7286139;19;20720;-79
2024/01/02 06:21:55;;;;;;;1.07;0.40;;;12.30;99.90;;;;;;7285553;19;20189;-78
2024/01/02 06:24:21;;;;;;;1.07;0.40;;;12.40;99.90;;;;;;7290311;19;20219;-79
2024/01/02 06:26:47;;;;;;;0.90;0.40;;;12.40;99.90;;;;;;7291782;19;20190;-79
2024/01/02 06:29:13;;;;;;;1.37;0.57;;;12.40;99.90;;;;;;7292785;19;20687;-80
2024/01/02 06:31:38;;;;;;;0.90;0.50;;;12.50;99.90;;;;;;7313228;19;20189;-79
2024/01/02 06:34:04;;;;;;;0.90;0.50;;;12.40;99.90;;;;;;7294012;19;20703;-78
2024/01/02 06:36:30;;;;;;;1.73;0.60;;;12.40;99.90;;;;;;7284986;19;20185;-78
2024/01/02 06:38:56;;;;;;;1.13;0.37;;;12.30;99.90;;;;;;7285639;19;20188;-78
2024/01/02 06:41:21;;;;;;;0.50;0.40;;;12.30;99.90;;;;;;7285096;19;20264;-78
2024/01/02 06:43:47;;;;;;;0.87;0.40;;;12.30;99.90;;;;;;7284003;19;20210;-79
2024/01/02 06:46:13;;;;;;;1.00;0.40;;;12.40;99.90;;;;;;7284359;19;20196;-79
2024/01/02 06:48:41;;;;;;;2.80;0.50;;;12.40;99.90;;;;;;7304075;19;20188;-79
2024/01/02 06:51:06;;;;;;;0.93;0.40;;;12.50;99.90;;;;;;7305382;19;20989;-78
2024/01/02 06:53:32;;;;;;;2.63;0.60;;;12.50;99.90;;;;;;7285544;19;20196;-78
2024/01/02 06:55:58;;;;;;;1.73;0.40;;;12.50;99.90;;;;;;7284222;19;20197;-79
2024/01/02 06:58:24;;;;;;;0.40;0.40;;;12.40;99.90;;;;;;7283360;19;20192;-79
2024/01/02 07:00:50;;;;;;;1.70;0.50;;;12.40;99.90;;;;;;7283658;19;20208;-78
2024/01/02 07:03:17;;;;;;;3.27;0.43;;;12.50;99.90;;;;;;7283859;19;20181;-79
2024/01/02 07:05:42;;;;;;;1.50;0.57;;;12.50;99.90;;;;;;7282460;19;20698;-79
2024/01/02 07:08:08;;;;;;;0.80;0.50;;;12.40;99.90;;;;;;7306554;19;20192;-78
2024/01/02 07:10:34;;;;;;;0.87;0.50;;;12.40;99.90;;;;;;7285611;19;20253;-87
2024/01/02 07:13:00;;;;;;;0.97;0.70;;;12.50;99.90;;;;;;7289512;19;20189;-87
2024/01/02 07:15:25;;;;;;;1.17;0.70;;;12.50;99.90;;;;;;7287551;19;20205;-87
2024/01/02 07:17:51;;;;;;;1.10;0.77;;;12.50;99.90;;;;;;7286509;19;20193;-87
2024/01/02 07:20:17;;;;;;;1.87;0.70;;;12.50;99.90;;;;;;7286335;19;20204;-86
2024/01/02 07:22:42;;;;;;;1.23;0.53;;;12.50;99.90;;;;;;7285708;19;20636;-86
2024/01/02 07:25:08;;;;;;;2.20;0.47;;;12.50;99.90;;;;;;7306969;19;20199;-85
2024/01/02 07:27:34;;;;;;;0.63;0.30;;;12.50;99.90;;;;;;7285035;19;20237;-87
2024/01/02 07:30:00;;;;;;;1.47;0.50;;;12.60;99.90;;;;;;7283467;19;20191;-87
2024/01/02 07:32:26;;;;;;;3.33;0.40;;;12.60;99.90;;;;;;7283295;19;20552;-87
2024/01/02 07:34:52;;;;;;;0.47;0.30;;;12.60;99.90;;;;;;7284529;19;20197;-86
2024/01/02 07:37:17;;;;;;;1.07;0.33;;;12.60;99.90;;;;;;7284805;19;20180;-86
2024/01/02 07:39:43;;;;;;;0.67;0.50;;;12.50;99.90;;;;;;7284181;19;20260;-85
2024/01/02 07:42:09;;;;;;;1.70;0.40;;;12.60;99.90;;;;;;7300179;19;20185;-84
2024/01/02 07:44:36;;;;;;;2.07;0.60;;;12.50;99.90;;;;;;7305698;19;20193;-87
2024/01/02 07:47:01;;;;;;;1.27;0.57;;;12.50;99.90;;;;;;7286116;19;20869;-87
2024/01/02 07:49:27;;;;;;;1.80;0.50;;;12.50;99.90;;;;;;7282814;19;20587;-87
2024/01/02 07:51:54;;;;;;;1.23;0.40;;;12.50;99.90;;;;;;7284883;19;20200;-87
2024/01/02 07:54:20;;;;;;;1.10;0.40;;;12.50;99.90;;;;;;7284788;19;20202;-87
2024/01/02 07:56:46;;;;;;;0.60;0.50;;;12.40;99.90;;;;;;7285201;19;20189;-86
2024/01/02 07:59:15;;;;;;;2.07;0.40;;;12.40;99.90;;;;;;7283661;19;20199;-85
2024/01/02 08:01:41;;;;;;;2.00;0.50;;;12.50;99.90;;;;;;7284543;19;20192;-85
2024/01/02 08:04:07;;;;;;;0.77;0.40;;;12.50;99.90;;;;;;7308769;19;20607;-85
2024/01/02 08:06:33;;;;;;;1.13;0.40;;;12.50;99.90;;;;;;7289514;19;20184;-85
2024/01/02 08:08:59;;;;;;;1.23;0.43;;;12.50;99.90;;;;;;7284185;19;20216;-85
2024/01/02 08:11:25;;;;;;;1.43;0.60;;;12.60;99.90;;;;;;7283180;19;20544;-85
2024/01/02 08:13:50;;;;;;;1.40;0.63;;;12.60;99.90;;;;;;7282765;19;20213;-85
2024/01/02 08:16:16;;;;;;;2.00;0.60;;;12.60;99.90;;;;;;7284037;19;20260;-85
2024/01/02 08:18:43;;;;;;;2.07;0.70;;;12.70;99.90;;;;;;7283314;19;20197;-85
2024/01/02 08:21:09;;;;;;;1.20;0.70;;;12.80;99.90;;;;;;7306519;19;20198;-83
2024/01/02 08:23:38;;;;;;;4.30;0.90;;;12.70;99.90;;;;;;7285400;19;20264;-86
2024/01/02 08:26:22;;;;;;;1.83;0.70;;;12.70;99.90;;;;;;7282881;19;20215;-87
2024/01/02 08:28:49;;;;;;;3.30;0.60;;;12.60;99.90;;;;;;7180543;19;2004446;-87
2024/01/02 08:31:14;;;;;;;1.60;0.70;;;12.60;99.90;;;;;;7283303;19;20177;-87
2024/01/02 08:33:40;;;;;;;4.00;0.97;;;12.50;99.90;;;;;;7291957;19;21784;-86
2024/01/02 08:36:06;;;;;;;4.70;1.20;;;12.50;99.90;;;;;;7304854;19;20567;-87
2024/01/02 08:38:35;;;;;;;10.33;2.20;;;12.50;99.90;;;;;;7282146;19;20185;-87
2024/01/02 08:41:01;;;;;;;13.10;3.33;;;12.50;99.90;;;;;;7289214;19;20603;-87
2024/01/02 08:43:26;;;;;;;15.83;4.07;;;12.50;99.90;;;;;;7290789;19;20200;-86
2024/01/02 08:45:52;;;;;;;20.23;4.73;;;12.40;99.90;;;;;;7291773;19;20204;-86
2024/01/02 08:48:18;;;;;;;22.30;4.77;;;12.40;99.90;;;;;;7290979;19;20200;-87
2024/01/02 08:50:43;;;;;;;24.50;5.53;;;12.40;99.90;;;;;;7290283;19;20193;-88
2024/01/02 08:53:12;;;;;;;21.93;4.77;;;12.40;99.90;;;;;;7308642;19;20209;-84
2024/01/02 08:55:39;;;;;;;23.43;4.57;;;12.40;99.90;;;;;;7313165;19;20207;-86
2024/01/02 08:58:05;;;;;;;24.60;4.97;;;12.40;99.90;;;;;;7291601;19;20191;-86
2024/01/02 09:00:31;;;;;;;8.90;2.37;;;12.50;99.90;;;;;;7293386;19;20560;-91
2024/01/02 09:03:03;;;;;;;7.53;1.50;;;12.50;99.90;;;;;;7292834;19;20189;-86
2024/01/02 09:05:29;;;;;;;3.87;1.00;;;12.50;99.90;;;;;;7292031;19;20713;-89
2024/01/02 09:07:55;;;;;;;4.97;1.00;;;12.40;99.90;;;;;;7292527;19;20185;-89
2024/01/02 09:10:24;;;;;;;2.50;0.80;;;12.40;99.90;;;;;;7294963;19;20213;-89
2024/01/02 09:12:50;;;;;;;1.87;0.70;;;12.40;99.90;;;;;;7293193;19;20536;-90
2024/01/02 09:15:15;;;;;;;3.23;0.73;;;12.40;99.90;;;;;;7289238;19;20185;-89
2024/01/02 09:17:41;;;;;;;2.07;0.57;;;12.50;99.90;;;;;;7304507;19;20192;-87
2024/01/02 09:20:08;;;;;;;12.57;8.47;;;12.40;99.90;;;;;;7334133;19;20201;-88
2024/01/02 09:22:34;;;;;;;1.97;0.80;;;12.40;99.90;;;;;;7323079;19;20188;-89
2024/01/02 09:25:00;;;;;;;2.30;0.60;;;12.40;99.90;;;;;;7313673;19;20194;-89
2024/01/02 09:27:29;;;;;;;3.10;0.50;;;12.50;99.90;;;;;;7291317;19;20213;-89
2024/01/02 09:29:58;;;;;;;1.53;0.70;;;12.30;99.90;;;;;;7291511;19;20659;-89
2024/01/02 09:32:25;;;;;;;2.00;0.57;;;12.30;99.90;;;;;;7297777;19;20189;-88
2024/01/02 09:34:51;;;;;;;1.07;0.47;;;12.40;99.90;;;;;;7299818;19;20229;-87
2024/01/02 09:37:17;;;;;;;1.03;0.40;;;12.30;99.90;;;;;;7292738;19;20220;-88
2024/01/02 09:39:44;;;;;;;2.77;0.60;;;12.20;99.90;;;;;;7291323;19;20197;-88
2024/01/02 09:42:22;;;;;;;1.13;0.50;;;12.20;99.90;;;;;;7304954;19;20247;-86
2024/01/02 09:45:09;;;;;;;1.87;0.60;;;12.10;99.90;;;;;;7293435;19;20215;-88
2024/01/02 09:47:44;;;;;;;1.23;0.50;;;12.00;99.90;;;;;;7300894;19;20206;-89
2024/01/02 09:50:48;;;;;;;1.43;0.50;;;12.00;99.90;;;;;;7289915;19;20202;-87
2024/01/02 09:53:59;;;;;;;1.70;0.40;;;11.90;99.90;;;;;;7183954;19;2004470;-88
2024/01/02 09:56:39;;;;;;;1.53;0.53;;;11.90;99.90;;;;;;7186360;19;2004609;-88
2024/01/02 09:59:32;;;;;;;1.10;0.40;;;11.90;99.90;;;;;;7288368;19;20192;-89
2024/01/02 10:02:22;;;;;;;1.10;0.50;;;12.00;99.90;;;;;;7186598;19;2004988;-89
2024/01/02 10:05:03;;;;;;;1.03;0.43;;;11.90;99.90;;;;;;7185931;19;2006336;-88
2024/01/02 10:08:30;;;;;;;1.53;0.50;;;11.80;99.90;;;;;;7289341;19;21162;-88
2024/01/02 10:11:17;;;;;;;2.77;0.57;;;11.80;99.90;;;;;;7083147;19;2004731;-88
2024/01/02 10:14:22;;;;;;;2.10;0.60;;;11.70;99.90;;;;;;7266328;19;20199;-88
2024/01/02 10:17:01;;;;;;;2.23;1.40;;;11.60;99.90;;;;;;7185557;19;2005061;-88
2024/01/02 10:20:01;;;;;;;3.20;2.20;;;11.60;99.90;;;;;;7286543;19;20199;-88
2024/01/02 10:22:33;;;;;;;2.53;1.27;;;11.50;99.90;;;;;;7186084;19;2004793;-89
2024/01/02 10:25:08;;;;;;;2.40;0.80;;;11.60;99.90;;;;;;7288594;19;20305;-90
2024/01/02 10:27:49;;;;;;;0.90;0.47;;;11.60;99.90;;;;;;7288851;19;20261;-89
2024/01/02 10:30:21;;;;;;;2.03;0.60;;;11.60;99.90;;;;;;7185120;19;2004805;-89
2024/01/02 10:33:25;;;;;;;1.13;0.60;;;11.80;99.90;;;;;;7287457;19;20687;-89
2024/01/02 10:36:00;;;;;;;1.57;0.60;;;11.80;99.90;;;;;;7185033;19;2004869;-89
2024/01/02 10:38:54;;;;;;;2.17;0.70;;;11.70;99.90;;;;;;7288477;19;20188;-88
2024/01/02 10:41:26;;;;;;;1.50;0.60;;;11.80;99.90;;;;;;7187091;19;2004858;-88
2024/01/02 10:44:18;;;;;;;0.90;0.57;;;11.80;99.90;;;;;;7288626;19;20193;-87
2024/01/02 10:46:55;;;;;;;3.40;1.23;;;11.70;99.90;;;;;;7266717;19;20202;-88
2024/01/02 10:49:30;;;;;;;2.47;0.60;;;11.70;99.90;;;;;;7285906;19;20317;-88
2024/01/02 10:52:20;;;;;;;2.53;0.70;;;11.70;99.90;;;;;;7285981;19;20197;-88
2024/01/02 10:55:09;;;;;;;3.53;0.70;;;11.80;99.90;;;;;;7183469;19;2006203;-87
2024/01/02 10:57:40;;;;;;;1.73;0.70;;;11.70;99.90;;;;;;7289371;19;20208;-89
2024/01/02 11:00:12;;;;;;;1.50;0.70;;;11.70;99.90;;;;;;7295958;19;20695;-85
2024/01/02 11:02:51;;;;;;;1.47;0.70;;;11.70;99.90;;;;;;7288497;19;20196;-88
2024/01/02 11:05:29;;;;;;;3.03;0.80;;;11.70;99.90;;;;;;7183460;19;2005065;-89
2024/01/02 11:08:03;;;;;;;2.93;0.83;;;11.70;99.90;;;;;;7271543;19;20224;-85
2024/01/02 11:10:32;;;;;;;2.13;0.80;;;11.80;99.90;;;;;;7287086;19;20198;-86
2024/01/02 11:13:05;;;;;;;1.53;0.80;;;11.80;99.90;;;;;;7286319;19;20192;-85
2024/01/02 11:15:35;;;;;;;1.70;0.90;;;11.70;99.90;;;;;;7286920;19;20633;-85
2024/01/02 11:18:03;;;;;;;2.20;0.70;;;11.80;99.90;;;;;;7284087;19;20188;-84
2024/01/02 11:21:00;;;;;;;1.80;0.80;;;11.80;99.90;;;;;;7284857;19;22340;-86
2024/01/02 11:23:29;;;;;;;1.57;0.63;;;11.90;99.90;;;;;;7183768;19;2004383;-88
2024/01/02 11:26:24;;;;;;;2.37;0.70;;;11.90;99.90;;;;;;7286321;19;20230;-88
2024/01/02 11:28:53;;;;;;;2.53;0.80;;;12.00;99.90;;;;;;7184401;19;2004627;-88
2024/01/02 11:31:21;;;;;;;4.30;1.03;;;11.90;99.90;;;;;;7284544;19;20679;-86
2024/01/02 11:34:12;;;;;;;4.40;1.10;;;11.90;99.90;;;;;;7283953;19;20267;-85
2024/01/02 11:37:01;;;;;;;4.03;0.90;;;11.80;99.90;;;;;;7284793;19;20188;-85
2024/01/02 11:39:48;;;;;;;5.03;1.10;;;11.80;99.90;;;;;;7182829;19;2006263;-85
2024/01/02 11:42:39;;;;;;;2.87;1.10;;;11.90;99.90;;;;;;7183207;19;2004822;-85
2024/01/02 11:45:12;;;;;;;4.83;1.40;;;11.90;99.90;;;;;;7285194;19;20199;-85
2024/01/02 11:47:44;;;;;;;5.90;2.33;;;11.90;99.90;;;;;;7283357;19;20202;-85
2024/01/02 11:50:11;;;;;;;5.80;2.17;;;11.90;99.90;;;;;;7278404;19;20192;-83
2024/01/02 11:52:57;;;;;;;4.73;1.53;;;12.00;99.90;;;;;;7306407;19;20228;-85
2024/01/02 11:55:38;;;;;;;8.90;3.23;;;12.00;99.90;;;;;;7183090;19;2004671;-85
2024/01/02 11:58:24;;;;;;;12.00;4.00;;;12.10;99.90;;;;;;7281221;19;20208;-85
2024/01/02 12:01:04;;;;;;;10.93;3.50;;;12.10;99.90;;;;;;7180238;19;2004591;-84
2024/01/02 12:03:54;;;;;;;7.93;2.17;;;12.10;99.90;;;;;;7283683;19;20294;-85
2024/01/02 12:06:29;;;;;;;8.13;2.03;;;12.10;99.90;;;;;;7180578;19;2004792;-86
2024/01/02 12:09:09;;;;;;;7.93;2.37;;;12.10;99.90;;;;;;7284116;19;20200;-85
2024/01/02 12:11:43;;;;;;;8.13;1.90;;;12.10;99.90;;;;;;7284966;19;20188;-85
2024/01/02 12:14:50;;;;;;;7.60;1.73;;;12.20;99.90;;;;;;7292002;19;20222;-85
2024/01/02 12:17:21;;;;;;;7.90;1.87;;;12.20;99.90;;;;;;7108124;19;2004674;-85
2024/01/02 12:19:51;;;;;;;7.47;2.07;;;12.30;99.90;;;;;;7315650;19;20191;-82
2024/01/02 12:22:17;;;;;;;8.20;1.83;;;12.40;99.90;;;;;;7321258;19;20193;-85
2024/01/02 12:24:45;;;;;;;9.40;2.10;;;12.50;99.90;;;;;;7311204;19;20210;-84
2024/01/02 12:27:15;;;;;;;9.97;2.23;;;12.50;99.90;;;;;;7308075;19;20735;-85
2024/01/02 12:29:51;;;;;;;6.90;1.90;;;12.50;99.90;;;;;;7302666;19;20185;-86
2024/01/02 12:32:27;;;;;;;9.30;2.17;;;12.50;99.90;;;;;;7289685;19;20231;-86
2024/01/02 12:35:08;;;;;;;5.93;1.60;;;12.50;99.90;;;;;;7291286;19;20646;-86
2024/01/02 12:38:03;;;;;;;8.60;1.70;;;12.50;99.90;;;;;;7290194;19;20208;-86
2024/01/02 12:40:31;;;;;;;5.10;1.30;;;12.60;99.90;;;;;;7187731;19;2004793;-86
2024/01/02 12:42:58;;;;;;;6.97;1.70;;;12.60;99.90;;;;;;7289628;19;20195;-86
2024/01/02 12:45:33;;;;;;;7.43;2.00;;;12.60;99.90;;;;;;7291822;19;20224;-85
2024/01/02 12:48:05;;;;;;;4.60;1.60;;;12.70;99.90;;;;;;7290573;19;20655;-85
2024/01/02 12:50:34;;;;;;;3.47;1.00;;;12.80;99.90;;;;;;7285112;19;20234;-87
2024/01/02 12:53:08;;;;;;;2.47;0.90;;;12.80;99.90;;;;;;7278927;19;20190;-86
2024/01/02 12:55:39;;;;;;;4.40;1.13;;;12.80;99.90;;;;;;7285168;19;20202;-82
2024/01/02 12:58:05;;;;;;;8.20;2.20;;;12.90;99.90;;;;;;7284911;19;20192;-80